Time;durP1;ratioP1;P1;durP2;ratioP2;P2;SDS_P1;SDS_P2;PMS_P1;PMS_P2;Temp;Humidity;BMP_temperature;BMP_pressure;BME280_temperature;BME280_humidity;BME280_pressure;Samples;Min_cycle;Max_cycle;Signal;HPM_P1;HPM_P2
2022/08/28 00:02:20;;;;;;;12.57;3.70;;;28.30;57.80;;;;;;5074679;28;20453;-73
2022/08/28 00:04:46;;;;;;;6.85;3.55;;;28.30;57.80;;;;;;5055299;28;20405;-74
2022/08/28 00:07:12;;;;;;;7.15;3.38;;;28.30;57.60;;;;;;5074589;28;20025;-74
2022/08/28 00:09:38;;;;;;;4.40;2.85;;;28.30;57.60;;;;;;5074104;28;20036;-74
2022/08/28 00:12:05;;;;;;;7.78;3.30;;;28.30;57.70;;;;;;5074300;28;20434;-74
2022/08/28 00:14:31;;;;;;;8.02;3.47;;;28.30;57.60;;;;;;5073964;28;20461;-74
2022/08/28 00:16:58;;;;;;;7.32;3.38;;;28.30;57.60;;;;;;5072776;28;20507;-74
2022/08/28 00:19:24;;;;;;;8.32;3.65;;;28.30;57.60;;;;;;5073841;28;20056;-74
2022/08/28 00:21:50;;;;;;;7.53;3.40;;;28.20;57.60;;;;;;5074167;28;20040;-74
2022/08/28 00:24:17;;;;;;;11.38;4.40;;;28.30;57.80;;;;;;5074142;28;20038;-74
2022/08/28 00:29:29;;;;;;;7.30;3.55;;;28.30;57.80;;;;;;5074022;28;20048;-73
2022/08/28 00:31:55;;;;;;;8.20;4.25;;;28.20;57.90;;;;;;5056258;28;20028;-74
2022/08/28 00:34:22;;;;;;;11.93;3.65;;;28.40;57.90;;;;;;5074183;28;20032;-74
2022/08/28 00:36:48;;;;;;;16.50;3.42;;;28.40;58.00;;;;;;5073549;28;20040;-74
2022/08/28 00:39:14;;;;;;;7.15;3.00;;;28.20;58.10;;;;;;5073955;28;20032;-74
2022/08/28 00:41:41;;;;;;;7.50;3.40;;;28.20;58.10;;;;;;5073600;28;20481;-74
2022/08/28 00:44:18;;;;;;;7.72;3.78;;;28.20;58.00;;;;;;5073848;28;20028;-74
2022/08/28 00:46:46;;;;;;;8.32;4.05;;;28.20;58.00;;;;;;5073584;28;20082;-74
2022/08/28 00:49:14;;;;;;;8.27;3.72;;;28.20;58.00;;;;;;5073528;28;20024;-73
2022/08/28 00:54:26;;;;;;;8.18;3.78;;;28.20;58.00;;;;;;5073723;28;20040;-74
2022/08/28 00:56:54;;;;;;;7.03;3.63;;;28.20;58.00;;;;;;5072774;28;20072;-73
2022/08/28 00:59:22;;;;;;;8.52;3.35;;;28.20;58.00;;;;;;5073136;28;20401;-74
2022/08/28 01:01:53;;;;;;;8.57;3.60;;;28.30;57.90;;;;;;5073180;28;20058;-73
2022/08/28 01:04:22;;;;;;;4.25;3.10;;;28.10;57.90;;;;;;5073443;28;20075;-73
2022/08/28 01:06:53;;;;;;;6.57;3.72;;;28.20;57.90;;;;;;5054918;28;20421;-73
2022/08/28 01:09:22;;;;;;;5.40;3.35;;;28.00;57.90;;;;;;5072751;28;20042;-74
2022/08/28 01:11:52;;;;;;;7.55;3.45;;;28.10;57.90;;;;;;5072860;28;20372;-74
2022/08/28 01:14:22;;;;;;;7.53;3.38;;;28.10;57.90;;;;;;5073203;28;20362;-74
2022/08/28 01:16:54;;;;;;;10.70;3.58;;;28.20;57.90;;;;;;5072525;28;20043;-74
2022/08/28 01:19:29;;;;;;;8.02;3.20;;;28.10;57.90;;;;;;5072781;28;20481;-73
2022/08/28 01:22:21;;;;;;;9.32;3.67;;;28.10;57.90;;;;;;5072385;28;20068;-74
2022/08/28 01:24:49;;;;;;;9.13;3.15;;;28.30;57.90;;;;;;5072360;28;20086;-73
2022/08/28 01:27:15;;;;;;;7.70;3.63;;;28.20;58.00;;;;;;5072624;28;20058;-74
2022/08/28 01:29:42;;;;;;;10.68;3.30;;;28.00;58.20;;;;;;5072702;28;20106;-74
2022/08/28 01:32:08;;;;;;;10.05;4.00;;;28.00;58.20;;;;;;5072886;28;20047;-73
2022/08/28 01:34:34;;;;;;;8.32;3.50;;;28.00;58.20;;;;;;5072753;28;20036;-74
2022/08/28 01:37:01;;;;;;;14.35;3.97;;;28.00;58.20;;;;;;5072197;28;20518;-73
2022/08/28 01:39:27;;;;;;;8.20;3.50;;;28.10;58.20;;;;;;5071948;28;20041;-74
2022/08/28 01:41:55;;;;;;;5.28;3.08;;;28.10;58.20;;;;;;5072193;28;20029;-74
2022/08/28 01:44:25;;;;;;;5.57;3.53;;;28.10;58.20;;;;;;5054594;28;20055;-74
2022/08/28 01:46:57;;;;;;;10.35;3.78;;;28.10;58.20;;;;;;5072081;28;20044;-74
2022/08/28 01:49:28;;;;;;;12.63;3.47;;;28.10;58.30;;;;;;5072137;28;20405;-73
2022/08/28 01:51:54;;;;;;;11.07;3.10;;;28.10;58.30;;;;;;5072124;28;20116;-74
2022/08/28 01:54:20;;;;;;;10.98;3.95;;;27.90;57.70;;;;;;5071910;28;20032;-74
2022/08/28 01:56:46;;;;;;;5.47;3.70;;;28.00;58.20;;;;;;5072004;28;20032;-73
2022/08/28 01:59:13;;;;;;;8.90;3.55;;;28.00;58.20;;;;;;5036555;28;20158;-73
2022/08/28 02:01:41;;;;;;;10.77;3.70;;;28.10;58.10;;;;;;5071980;28;20504;-74
2022/08/28 02:04:07;;;;;;;6.80;3.72;;;28.20;58.10;;;;;;5071809;28;20024;-73
2022/08/28 02:06:34;;;;;;;8.18;3.47;;;28.20;58.00;;;;;;5071758;28;20455;-73
2022/08/28 02:09:00;;;;;;;7.93;4.38;;;28.10;58.00;;;;;;5070898;28;20033;-74
2022/08/28 02:11:29;;;;;;;7.30;3.58;;;27.90;57.50;;;;;;5071814;28;20046;-74
2022/08/28 02:13:55;;;;;;;13.90;4.30;;;28.10;58.00;;;;;;5071619;28;20029;-74
2022/08/28 02:16:21;;;;;;;9.35;3.38;;;28.20;58.10;;;;;;5071618;28;20036;-73
2022/08/28 02:18:47;;;;;;;8.57;3.40;;;28.10;58.00;;;;;;5071900;28;20150;-74
2022/08/28 02:21:13;;;;;;;7.30;3.38;;;28.00;58.10;;;;;;5071518;28;20134;-73
2022/08/28 02:23:42;;;;;;;5.25;3.40;;;28.00;58.10;;;;;;5071499;28;20070;-73
2022/08/28 02:26:09;;;;;;;4.72;3.35;;;27.90;57.50;;;;;;5071849;28;20033;-74
2022/08/28 02:28:36;;;;;;;9.35;3.90;;;28.00;58.10;;;;;;5071585;28;20032;-74
2022/08/28 02:31:04;;;;;;;8.63;3.47;;;27.90;57.60;;;;;;5071097;28;20455;-74
2022/08/28 02:33:30;;;;;;;8.88;3.20;;;28.00;58.30;;;;;;5071701;28;20024;-74
2022/08/28 02:35:56;;;;;;;8.70;3.53;;;27.90;57.80;;;;;;5071264;28;20099;-74
2022/08/28 02:38:23;;;;;;;7.13;3.38;;;28.10;58.30;;;;;;5053463;28;20052;-74
2022/08/28 02:40:51;;;;;;;10.27;4.28;;;28.00;58.30;;;;;;5053679;28;20036;-74
2022/08/28 02:43:17;;;;;;;9.68;4.30;;;28.00;58.30;;;;;;5053488;28;20040;-74
2022/08/28 02:45:43;;;;;;;7.43;3.97;;;28.00;58.20;;;;;;5071454;28;20028;-74
2022/08/28 02:48:09;;;;;;;8.48;3.80;;;27.90;57.70;;;;;;5071306;28;20107;-73
2022/08/28 02:50:35;;;;;;;13.43;3.92;;;27.90;57.70;;;;;;5071533;28;20604;-74
2022/08/28 02:53:01;;;;;;;8.55;3.92;;;27.90;57.70;;;;;;5071161;28;20473;-74
2022/08/28 02:55:28;;;;;;;6.32;2.95;;;28.10;58.20;;;;;;5053493;28;20102;-74
2022/08/28 02:57:54;;;;;;;11.80;4.20;;;28.10;58.20;;;;;;5071246;28;20401;-74
2022/08/28 03:00:23;;;;;;;9.35;3.80;;;28.10;58.20;;;;;;5071034;28;20081;-73
2022/08/28 03:02:49;;;;;;;8.13;3.72;;;28.00;58.20;;;;;;5071132;28;20041;-74
2022/08/28 03:05:22;;;;;;;7.65;3.97;;;28.00;58.10;;;;;;5071208;28;20024;-74
2022/08/28 03:07:49;;;;;;;9.77;3.80;;;28.10;58.10;;;;;;5071331;28;20024;-74
2022/08/28 03:10:17;;;;;;;6.18;3.72;;;28.00;58.00;;;;;;5071404;28;20033;-74
2022/08/28 03:12:43;;;;;;;9.32;4.00;;;28.10;58.00;;;;;;5053647;28;20100;-73
2022/08/28 03:15:10;;;;;;;7.85;4.25;;;28.00;58.00;;;;;;5071094;28;20040;-73
2022/08/28 03:17:36;;;;;;;7.75;3.35;;;28.00;58.00;;;;;;5071475;28;20024;-74
2022/08/28 03:20:09;;;;;;;7.28;3.40;;;27.90;57.60;;;;;;5071375;28;20035;-74
2022/08/28 03:25:21;;;;;;;8.15;4.28;;;28.10;58.20;;;;;;5074886;28;20170;-74
2022/08/28 03:27:48;;;;;;;11.05;4.78;;;27.90;57.60;;;;;;5074992;28;20035;-74
2022/08/28 03:30:14;;;;;;;9.25;3.72;;;27.90;57.60;;;;;;5076665;28;20131;-74
2022/08/28 03:32:40;;;;;;;5.18;3.70;;;27.90;57.60;;;;;;5074834;28;20037;-73
2022/08/28 03:35:06;;;;;;;7.82;4.10;;;27.90;57.60;;;;;;5074817;28;20574;-74
2022/08/28 03:37:33;;;;;;;13.82;4.20;;;27.90;57.70;;;;;;5074951;28;20033;-74
2022/08/28 03:39:59;;;;;;;9.90;4.07;;;27.90;57.80;;;;;;5074762;28;20044;-74
2022/08/28 03:42:25;;;;;;;13.18;4.05;;;28.00;58.30;;;;;;5074642;28;20037;-73
2022/08/28 03:44:53;;;;;;;13.52;4.18;;;27.90;57.70;;;;;;5073639;28;20492;-74
2022/08/28 03:47:19;;;;;;;11.60;4.20;;;27.90;57.80;;;;;;5075078;28;20040;-73
2022/08/28 03:49:45;;;;;;;11.90;3.95;;;27.90;57.80;;;;;;5074879;28;20021;-73
2022/08/28 03:52:11;;;;;;;5.00;3.50;;;27.90;57.80;;;;;;5074528;28;20090;-74
2022/08/28 03:54:37;;;;;;;6.38;3.83;;;27.90;57.80;;;;;;5074500;28;20028;-73
2022/08/28 03:57:03;;;;;;;9.10;4.07;;;27.90;57.80;;;;;;5074703;28;20028;-74
2022/08/28 03:59:29;;;;;;;9.77;4.18;;;28.00;58.30;;;;;;5074630;28;20068;-74
2022/08/28 04:01:55;;;;;;;7.32;4.00;;;27.90;57.60;;;;;;5074461;28;20063;-74
2022/08/28 04:04:21;;;;;;;8.43;5.22;;;28.00;58.20;;;;;;5074441;28;20394;-74
2022/08/28 04:06:47;;;;;;;11.13;4.47;;;28.10;58.20;;;;;;5074463;28;20025;-73
2022/08/28 04:09:13;;;;;;;15.68;4.10;;;27.80;57.70;;;;;;5074318;28;20071;-74
2022/08/28 04:11:41;;;;;;;6.30;3.78;;;27.90;57.60;;;;;;5073690;28;20832;-73
2022/08/28 04:14:09;;;;;;;12.35;4.40;;;28.00;58.10;;;;;;5073622;28;20097;-74
2022/08/28 04:16:35;;;;;;;6.28;3.75;;;27.90;57.50;;;;;;5073795;28;20056;-73
2022/08/28 04:19:01;;;;;;;9.25;3.80;;;27.80;57.50;;;;;;5073656;28;20037;-74
2022/08/28 04:21:27;;;;;;;13.10;4.78;;;28.10;58.00;;;;;;5073364;28;20036;-73
2022/08/28 04:23:54;;;;;;;8.50;4.32;;;27.90;57.50;;;;;;5073496;28;20493;-74
2022/08/28 04:26:25;;;;;;;6.97;4.07;;;27.90;57.50;;;;;;5073999;28;20128;-73
2022/08/28 04:28:53;;;;;;;11.77;5.07;;;28.00;58.00;;;;;;5073904;28;20129;-74
2022/08/28 04:31:19;;;;;;;7.13;4.00;;;27.90;57.50;;;;;;5093740;28;20055;-74
2022/08/28 04:33:45;;;;;;;10.75;4.07;;;28.00;57.90;;;;;;5093314;28;20121;-74
2022/08/28 04:36:14;;;;;;;10.40;4.07;;;28.00;58.00;;;;;;5093905;28;20071;-74
2022/08/28 04:38:41;;;;;;;9.07;3.50;;;28.10;58.00;;;;;;5093941;28;20055;-74
2022/08/28 04:41:09;;;;;;;6.45;3.70;;;28.00;57.90;;;;;;5093901;28;20040;-73
2022/08/28 04:43:35;;;;;;;12.40;4.72;;;27.90;57.30;;;;;;5076031;28;20417;-73
2022/08/28 04:46:10;;;;;;;12.15;4.45;;;28.00;57.90;;;;;;5093883;28;20036;-73
2022/08/28 04:48:37;;;;;;;11.63;4.13;;;27.90;57.30;;;;;;5093941;28;20040;-73
2022/08/28 04:51:08;;;;;;;9.25;3.90;;;28.00;57.90;;;;;;5093747;28;20028;-73
2022/08/28 04:53:36;;;;;;;11.63;4.60;;;28.00;57.90;;;;;;5094098;28;20113;-73
2022/08/28 04:56:05;;;;;;;11.13;4.30;;;28.10;57.90;;;;;;5075587;28;20032;-74
2022/08/28 04:58:33;;;;;;;8.82;4.50;;;27.90;57.30;;;;;;5058319;28;20478;-73
2022/08/28 05:01:05;;;;;;;10.30;4.90;;;28.10;57.90;;;;;;5093576;28;20047;-74
2022/08/28 05:03:31;;;;;;;13.48;5.13;;;28.00;58.00;;;;;;5093704;28;20040;-73
2022/08/28 05:05:58;;;;;;;6.57;4.10;;;27.90;57.60;;;;;;5093521;28;20032;-72
2022/08/28 05:08:26;;;;;;;8.43;4.75;;;28.00;58.00;;;;;;5093438;28;20569;-73
2022/08/28 05:10:53;;;;;;;11.63;5.05;;;28.10;57.90;;;;;;5093671;28;20598;-73
2022/08/28 05:13:20;;;;;;;15.38;5.70;;;28.00;57.90;;;;;;5057547;28;20050;-73
2022/08/28 05:15:48;;;;;;;14.70;4.30;;;28.00;57.80;;;;;;5093193;28;20056;-74
2022/08/28 05:18:19;;;;;;;12.65;5.13;;;28.00;57.70;;;;;;5093372;28;20036;-74
2022/08/28 05:20:47;;;;;;;12.88;4.90;;;28.10;57.70;;;;;;5093600;28;20096;-73
2022/08/28 05:23:15;;;;;;;11.13;4.28;;;28.20;57.60;;;;;;5093190;28;20031;-74
2022/08/28 05:25:44;;;;;;;10.30;4.13;;;28.10;57.60;;;;;;5093233;28;20093;-74
2022/08/28 05:28:11;;;;;;;8.27;4.68;;;28.10;57.60;;;;;;5093385;28;20085;-74
2022/08/28 05:30:38;;;;;;;10.57;4.20;;;28.30;57.50;;;;;;5078806;28;20048;-73
2022/08/28 05:33:06;;;;;;;9.07;4.30;;;28.30;57.40;;;;;;5072705;28;20036;-73
2022/08/28 05:35:33;;;;;;;10.30;3.92;;;28.30;57.30;;;;;;5072609;28;20037;-74
2022/08/28 05:37:59;;;;;;;13.70;4.70;;;28.30;57.40;;;;;;5072861;28;20024;-74
2022/08/28 05:40:26;;;;;;;9.75;4.10;;;28.40;57.20;;;;;;5072721;28;20104;-74
2022/08/28 05:42:52;;;;;;;9.25;4.25;;;28.50;57.20;;;;;;5072293;28;20469;-74
2022/08/28 05:45:18;;;;;;;12.82;4.07;;;28.40;57.10;;;;;;5072486;28;20063;-74
2022/08/28 05:47:44;;;;;;;11.93;4.43;;;28.60;57.10;;;;;;5054622;28;20071;-74
2022/08/28 05:50:13;;;;;;;9.52;3.15;;;28.40;57.00;;;;;;5072608;28;20029;-72
2022/08/28 05:52:41;;;;;;;10.75;4.47;;;28.50;57.00;;;;;;5072279;28;20036;-74
2022/08/28 05:55:10;;;;;;;7.43;4.15;;;28.60;56.90;;;;;;5072223;28;20099;-73
2022/08/28 05:57:38;;;;;;;6.47;4.07;;;28.70;56.80;;;;;;5072274;28;20043;-74
2022/08/28 06:00:05;;;;;;;6.13;3.15;;;28.70;56.70;;;;;;5072249;28;20025;-74
2022/08/28 06:02:33;;;;;;;7.15;3.42;;;28.60;56.70;;;;;;5072356;28;20089;-74
2022/08/28 06:05:00;;;;;;;10.98;3.67;;;28.70;56.60;;;;;;5072135;28;20440;-74
2022/08/28 06:07:26;;;;;;;10.18;3.33;;;28.70;56.50;;;;;;5072222;28;20029;-74
2022/08/28 06:09:52;;;;;;;4.57;3.38;;;28.60;56.50;;;;;;5072233;28;20029;-74
2022/08/28 06:12:19;;;;;;;11.18;3.50;;;28.70;56.40;;;;;;5054259;28;20036;-74
2022/08/28 06:14:45;;;;;;;13.23;4.10;;;28.70;56.40;;;;;;5071006;28;20032;-73
2022/08/28 06:17:11;;;;;;;7.38;3.17;;;28.80;56.40;;;;;;5072020;28;20041;-74
2022/08/28 06:19:37;;;;;;;6.47;3.30;;;28.80;56.30;;;;;;5071965;28;20036;-74
2022/08/28 06:22:04;;;;;;;5.50;3.33;;;28.80;56.30;;;;;;5071968;28;20028;-73
2022/08/28 06:24:31;;;;;;;11.38;3.78;;;28.80;56.20;;;;;;5072205;28;20072;-74
2022/08/28 06:26:58;;;;;;;8.60;3.53;;;28.90;56.20;;;;;;5071974;28;20028;-74
2022/08/28 06:29:26;;;;;;;4.72;2.78;;;28.70;56.20;;;;;;5071887;28;20504;-74
2022/08/28 06:31:58;;;;;;;7.63;3.72;;;28.80;56.20;;;;;;5071918;28;20051;-73
2022/08/28 06:34:24;;;;;;;9.17;3.47;;;28.90;56.10;;;;;;5072280;28;20345;-74
2022/08/28 06:36:50;;;;;;;4.43;2.75;;;28.90;56.10;;;;;;5071736;28;20380;-74
2022/08/28 06:39:16;;;;;;;8.25;3.63;;;28.90;56.00;;;;;;5071993;28;20111;-74
2022/08/28 06:41:42;;;;;;;9.30;3.75;;;28.80;56.00;;;;;;5071660;28;20029;-73
2022/08/28 06:44:12;;;;;;;7.68;3.85;;;28.80;56.00;;;;;;5071970;28;20056;-74
2022/08/28 06:46:39;;;;;;;9.25;3.45;;;28.90;55.90;;;;;;5054078;28;20025;-74
2022/08/28 06:49:07;;;;;;;5.32;3.08;;;29.00;56.50;;;;;;5071636;28;20081;-74
2022/08/28 06:51:34;;;;;;;4.53;2.85;;;28.80;55.90;;;;;;5071694;28;20047;-74
2022/08/28 06:54:00;;;;;;;4.50;3.30;;;29.00;56.50;;;;;;5071461;28;20540;-74
2022/08/28 06:56:26;;;;;;;10.13;3.17;;;28.90;55.90;;;;;;5074569;28;20390;-73
2022/08/28 06:58:55;;;;;;;6.50;2.97;;;29.00;56.40;;;;;;5075918;28;20473;-74
2022/08/28 07:01:31;;;;;;;7.07;3.65;;;29.00;56.40;;;;;;5075735;28;20040;-74
2022/08/28 07:04:06;;;;;;;8.90;3.28;;;29.00;56.40;;;;;;5075714;28;20059;-73
2022/08/28 07:06:35;;;;;;;13.65;3.60;;;28.80;55.90;;;;;;5056621;28;20036;-74
2022/08/28 07:09:04;;;;;;;6.18;3.17;;;29.00;56.50;;;;;;5075593;28;20060;-74
2022/08/28 07:11:32;;;;;;;8.27;3.67;;;28.90;55.90;;;;;;5075614;28;20029;-74
2022/08/28 07:13:59;;;;;;;7.68;4.18;;;29.00;56.40;;;;;;5075174;28;20036;-74
2022/08/28 07:16:28;;;;;;;10.23;3.90;;;28.90;55.90;;;;;;5075505;28;20036;-73
2022/08/28 07:18:56;;;;;;;11.32;4.15;;;29.00;56.40;;;;;;5057524;28;20036;-74
2022/08/28 07:21:22;;;;;;;9.27;3.20;;;29.00;56.40;;;;;;5075305;28;20059;-74
2022/08/28 07:23:48;;;;;;;10.10;3.92;;;29.00;56.40;;;;;;5075085;28;20093;-73
2022/08/28 07:26:18;;;;;;;11.18;3.47;;;29.00;56.40;;;;;;5075557;28;20078;-73
2022/08/28 07:28:44;;;;;;;7.72;3.10;;;29.00;56.40;;;;;;5075411;28;20039;-74
2022/08/28 07:31:17;;;;;;;9.38;4.28;;;28.90;55.80;;;;;;5075144;28;20048;-74
2022/08/28 07:33:44;;;;;;;9.77;3.38;;;29.00;56.40;;;;;;5074983;28;20041;-74
2022/08/28 07:36:13;;;;;;;5.78;3.15;;;28.90;55.80;;;;;;5074754;28;20047;-74
2022/08/28 07:38:40;;;;;;;5.10;2.85;;;28.90;55.80;;;;;;5075054;28;20063;-74
2022/08/28 07:41:18;;;;;;;4.35;2.95;;;29.00;56.30;;;;;;5074708;28;20055;-74
2022/08/28 07:46:28;;;;;;;15.13;3.42;;;28.90;55.80;;;;;;5056059;28;20048;-73
2022/08/28 07:48:57;;;;;;;15.13;3.80;;;28.90;55.80;;;;;;5056950;28;20034;-74
2022/08/28 07:51:25;;;;;;;15.27;3.97;;;28.80;55.80;;;;;;5074789;28;20633;-74
2022/08/28 07:53:52;;;;;;;6.47;3.05;;;29.00;56.40;;;;;;5074584;28;20033;-74
2022/08/28 07:56:19;;;;;;;12.02;4.13;;;28.80;55.90;;;;;;5074583;28;20033;-74
2022/08/28 07:58:46;;;;;;;8.05;3.20;;;28.90;55.90;;;;;;5074689;28;20458;-74
2022/08/28 08:01:12;;;;;;;6.00;3.63;;;28.90;55.90;;;;;;5074681;28;20029;-74
2022/08/28 08:03:38;;;;;;;7.47;3.65;;;28.80;56.00;;;;;;5056951;28;20120;-73
2022/08/28 08:06:05;;;;;;;17.88;3.60;;;28.90;56.00;;;;;;5074145;28;20028;-74
2022/08/28 08:08:32;;;;;;;10.82;3.20;;;28.80;56.00;;;;;;5073585;28;20086;-74
2022/08/28 08:11:19;;;;;;;5.18;2.90;;;28.80;56.00;;;;;;5074608;28;20119;-74
2022/08/28 08:13:47;;;;;;;10.98;3.95;;;28.90;56.00;;;;;;5021987;28;20045;-74
2022/08/28 08:16:19;;;;;;;7.95;3.20;;;28.90;56.00;;;;;;5056452;28;20124;-74
2022/08/28 08:18:47;;;;;;;8.60;2.90;;;28.90;56.00;;;;;;5074371;28;20086;-74
2022/08/28 08:21:15;;;;;;;11.85;3.30;;;28.90;56.00;;;;;;5074297;28;20152;-74
2022/08/28 08:23:42;;;;;;;5.25;2.60;;;28.90;56.00;;;;;;5074071;28;20040;-73
2022/08/28 08:26:11;;;;;;;5.93;3.03;;;28.90;56.00;;;;;;5073950;28;20475;-74
2022/08/28 08:28:40;;;;;;;10.27;3.70;;;28.90;56.00;;;;;;5074190;28;20356;-74
2022/08/28 08:31:13;;;;;;;7.15;3.10;;;29.00;56.60;;;;;;5074106;28;20053;-74
2022/08/28 08:33:42;;;;;;;9.23;3.55;;;28.90;56.00;;;;;;5073924;28;20060;-74
2022/08/28 08:36:11;;;;;;;6.65;2.70;;;28.90;56.00;;;;;;5056027;28;20435;-74
2022/08/28 08:38:37;;;;;;;9.93;2.97;;;29.10;56.60;;;;;;5073797;28;20509;-74
2022/08/28 08:41:29;;;;;;;5.63;3.00;;;28.90;56.00;;;;;;5074051;28;20028;-74
2022/08/28 08:43:59;;;;;;;9.30;3.30;;;28.80;56.00;;;;;;5073937;28;20047;-74
2022/08/28 08:46:32;;;;;;;10.18;3.70;;;29.00;56.50;;;;;;5055889;28;20045;-74
2022/08/28 08:49:09;;;;;;;11.15;3.22;;;28.90;56.00;;;;;;5073829;28;20617;-74
2022/08/28 08:51:51;;;;;;;5.78;2.90;;;29.00;56.50;;;;;;5073861;28;20056;-74
2022/08/28 08:54:19;;;;;;;;;;;28.80;55.90;;;;;;5074135;28;20449;-74
2022/08/28 08:56:46;;;;;;;4.72;2.90;;;28.90;56.10;;;;;;5073466;28;19940;-75
2022/08/28 08:59:20;;;;;;;12.07;3.72;;;28.80;56.00;;;;;;5073464;28;20032;-74
2022/08/28 09:02:17;;;;;;;11.98;2.72;;;28.70;56.00;;;;;;5073541;28;20020;-74
2022/08/28 09:05:06;;;;;;;6.82;2.72;;;28.80;56.10;;;;;;5073409;28;20044;-74
2022/08/28 09:07:41;;;;;;;8.40;3.15;;;28.70;56.00;;;;;;4991702;28;20480;-74
2022/08/28 09:10:11;;;;;;;5.88;2.67;;;28.90;56.10;;;;;;4991569;28;20051;-74
2022/08/28 09:12:56;;;;;;;6.22;2.60;;;28.80;56.10;;;;;;4991503;28;20066;-74
2022/08/28 09:15:32;;;;;;;8.45;3.25;;;28.80;56.10;;;;;;4991309;28;20061;-74
2022/08/28 09:18:12;;;;;;;11.15;4.00;;;28.80;56.10;;;;;;4990948;28;20054;-74
2022/08/28 09:20:39;;;;;;;4.22;2.53;;;28.90;56.10;;;;;;4991032;28;20042;-74
2022/08/28 09:23:06;;;;;;;10.38;3.42;;;28.80;56.20;;;;;;4971684;28;20038;-74
2022/08/28 09:25:49;;;;;;;4.68;2.70;;;28.90;56.20;;;;;;4971799;28;20090;-74
2022/08/28 09:28:31;;;;;;;5.95;3.10;;;28.90;56.20;;;;;;4971542;28;20042;-74
2022/08/28 09:31:07;;;;;;;8.80;2.92;;;29.00;56.70;;;;;;4971865;28;20500;-74
2022/08/28 09:33:39;;;;;;;2.83;2.20;;;29.00;56.70;;;;;;4974711;28;20038;-74
2022/08/28 09:36:20;;;;;;;7.32;3.10;;;28.90;56.20;;;;;;4991188;28;20046;-74
2022/08/28 09:39:05;;;;;;;9.32;3.42;;;28.90;56.20;;;;;;4990816;28;20487;-74
2022/08/28 09:44:20;;;;;;;3.83;2.30;;;28.80;56.20;;;;;;5019179;28;20609;-74
2022/08/28 09:46:51;;;;;;;13.40;2.80;;;28.90;56.20;;;;;;5070041;28;20041;-73
2022/08/28 09:49:25;;;;;;;6.13;3.38;;;28.90;56.20;;;;;;5069974;28;20036;-74
2022/08/28 09:51:51;;;;;;;7.63;3.17;;;28.90;56.10;;;;;;5070067;28;20075;-74
2022/08/28 09:54:31;;;;;;;6.70;3.30;;;28.90;56.10;;;;;;5069864;28;20127;-74
2022/08/28 09:56:58;;;;;;;8.75;3.17;;;28.90;55.90;;;;;;5070053;28;20056;-74
2022/08/28 09:59:27;;;;;;;7.07;3.08;;;28.80;56.20;;;;;;5070148;28;20114;-74
2022/08/28 10:02:17;;;;;;;4.45;3.03;;;28.80;56.20;;;;;;5074678;28;20397;-74
2022/08/28 10:05:07;;;;;;;4.78;2.60;;;28.90;56.20;;;;;;5092557;28;20028;-74
2022/08/28 10:07:55;;;;;;;12.05;2.97;;;28.90;56.20;;;;;;5092478;28;20020;-74
2022/08/28 10:10:52;;;;;;;5.82;2.80;;;28.90;56.20;;;;;;5092582;28;20055;-74
2022/08/28 10:13:34;;;;;;;6.47;2.40;;;28.70;56.30;;;;;;5092448;28;20036;-74
2022/08/28 10:16:18;;;;;;;6.72;3.25;;;28.80;56.30;;;;;;5091980;28;20055;-74
2022/08/28 10:19:24;;;;;;;3.65;2.53;;;28.70;56.30;;;;;;5092187;28;20032;-74
2022/08/28 10:22:32;;;;;;;4.03;2.30;;;28.80;56.40;;;;;;5029604;28;20140;-74
2022/08/28 10:25:18;;;;;;;10.82;3.17;;;28.80;56.40;;;;;;5029417;28;20071;-74
2022/08/28 10:28:04;;;;;;;4.78;2.45;;;28.80;56.40;;;;;;5029519;28;20044;-74
2022/08/28 10:30:35;;;;;;;6.53;2.42;;;28.80;56.40;;;;;;5028743;28;20061;-73
2022/08/28 10:33:04;;;;;;;5.15;2.38;;;28.70;56.40;;;;;;5029415;28;20057;-74
2022/08/28 10:35:48;;;;;;;12.15;2.85;;;28.80;56.40;;;;;;5029338;28;20130;-74
2022/08/28 10:38:28;;;;;;;11.45;3.70;;;28.90;56.40;;;;;;5029396;28;20081;-74
2022/08/28 10:41:00;;;;;;;7.40;2.80;;;28.80;56.40;;;;;;5029286;28;20079;-74
2022/08/28 10:43:32;;;;;;;4.23;2.23;;;28.90;56.40;;;;;;5029465;28;20044;-74
2022/08/28 10:46:29;;;;;;;4.10;2.40;;;28.80;56.40;;;;;;5029166;28;20049;-74
2022/08/28 10:49:02;;;;;;;8.88;2.53;;;28.90;56.40;;;;;;5013092;28;20505;-74
2022/08/28 10:51:31;;;;;;;4.90;2.03;;;28.90;56.40;;;;;;5029082;28;20560;-74
2022/08/28 10:54:03;;;;;;;3.53;1.92;;;28.90;56.40;;;;;;5012425;28;20440;-74
2022/08/28 10:56:45;;;;;;;4.30;2.33;;;28.80;56.40;;;;;;5029249;28;20041;-74
2022/08/28 10:59:11;;;;;;;4.10;2.97;;;28.80;56.40;;;;;;5080432;28;20044;-74
2022/08/28 11:01:41;;;;;;;6.00;2.58;;;28.90;56.40;;;;;;5073658;28;20439;-74
2022/08/28 11:04:21;;;;;;;9.40;2.17;;;28.90;56.40;;;;;;5091538;28;20089;-73
2022/08/28 11:06:51;;;;;;;5.43;2.30;;;28.90;56.40;;;;;;5091593;28;20070;-73
2022/08/28 11:09:37;;;;;;;8.05;2.17;;;28.80;56.40;;;;;;5091864;28;20082;-74
2022/08/28 11:12:27;;;;;;;2.97;2.00;;;28.80;56.40;;;;;;5091695;28;20056;-74
2022/08/28 11:14:53;;;;;;;2.88;2.10;;;28.90;56.40;;;;;;5091351;28;20496;-74
2022/08/28 11:17:26;;;;;;;10.75;3.10;;;28.80;56.40;;;;;;5091576;28;20445;-74
2022/08/28 11:20:21;;;;;;;3.35;2.22;;;28.70;56.40;;;;;;5091584;28;20039;-74
2022/08/28 11:22:59;;;;;;;8.40;3.05;;;28.80;56.50;;;;;;5091438;28;20556;-74
2022/08/28 11:25:40;;;;;;;3.35;2.25;;;28.70;56.50;;;;;;5091557;28;20035;-76
2022/08/28 11:28:15;;;;;;;5.68;2.42;;;28.70;56.60;;;;;;5073412;28;20123;-73
2022/08/28 11:30:44;;;;;;;6.93;2.42;;;28.80;56.60;;;;;;5076610;28;20143;-74
2022/08/28 11:33:34;;;;;;;7.60;2.75;;;28.70;56.50;;;;;;5053350;28;20032;-74
2022/08/28 11:36:02;;;;;;;6.53;2.38;;;28.90;56.60;;;;;;5071006;28;20059;-74
2022/08/28 11:38:40;;;;;;;4.15;2.60;;;28.80;56.60;;;;;;5071455;28;20064;-74
2022/08/28 11:41:21;;;;;;;7.18;2.47;;;28.80;56.60;;;;;;5071785;28;20032;-74
2022/08/28 11:43:51;;;;;;;6.65;2.65;;;28.80;56.60;;;;;;5073630;28;20056;-74
2022/08/28 11:46:31;;;;;;;2.47;1.85;;;28.80;56.60;;;;;;5074729;28;20469;-74
2022/08/28 11:49:00;;;;;;;4.85;2.47;;;28.90;56.50;;;;;;5074759;28;20032;-73
2022/08/28 11:51:58;;;;;;;6.22;2.40;;;28.90;56.60;;;;;;5074632;28;20024;-74
2022/08/28 11:54:43;;;;;;;4.72;2.50;;;28.90;56.60;;;;;;4992791;28;20078;-74
2022/08/28 11:57:38;;;;;;;10.10;2.55;;;28.80;56.50;;;;;;4992748;28;20053;-74
2022/08/28 12:00:27;;;;;;;3.65;2.13;;;28.80;56.50;;;;;;4992890;28;20066;-74
2022/08/28 12:03:08;;;;;;;3.38;2.53;;;28.80;56.50;;;;;;4992983;28;20038;-74
2022/08/28 12:05:38;;;;;;;8.45;2.60;;;28.90;56.50;;;;;;4992649;28;20046;-73
2022/08/28 12:08:04;;;;;;;6.45;2.70;;;29.00;57.00;;;;;;4992801;28;20446;-74
2022/08/28 12:10:30;;;;;;;9.82;2.75;;;28.80;56.50;;;;;;4992672;28;20038;-74
2022/08/28 12:13:01;;;;;;;5.68;2.22;;;28.90;56.50;;;;;;4992776;28;20542;-74
2022/08/28 12:15:28;;;;;;;8.20;3.20;;;28.80;56.50;;;;;;4992367;28;20565;-73
2022/08/28 12:18:10;;;;;;;8.50;2.83;;;28.80;56.50;;;;;;4992662;28;20557;-74
2022/08/28 12:20:36;;;;;;;8.33;4.00;;;28.70;56.50;;;;;;4992406;28;20038;-73
2022/08/28 12:23:27;;;;;;;8.30;2.47;;;28.90;56.60;;;;;;4992478;28;20288;-74
2022/08/28 12:26:07;;;;;;;3.22;2.05;;;28.80;56.60;;;;;;4992397;28;20026;-74
2022/08/28 12:28:38;;;;;;;5.97;2.10;;;28.70;56.60;;;;;;4992308;28;20034;-74
2022/08/28 12:31:04;;;;;;;6.75;2.88;;;28.70;56.70;;;;;;5059569;28;20059;-74
2022/08/28 12:33:37;;;;;;;5.28;2.75;;;28.70;56.70;;;;;;5094254;28;20028;-74
2022/08/28 12:36:06;;;;;;;6.72;2.75;;;28.80;56.70;;;;;;5093922;28;20481;-74
2022/08/28 12:38:33;;;;;;;3.33;2.25;;;28.80;56.70;;;;;;5071186;28;20079;-73
2022/08/28 12:41:01;;;;;;;5.82;2.63;;;28.80;56.70;;;;;;5071265;28;20060;-75
2022/08/28 12:43:37;;;;;;;6.40;2.95;;;28.90;56.10;;;;;;5071282;28;20435;-74
2022/08/28 12:46:07;;;;;;;4.43;2.50;;;28.80;56.60;;;;;;5054260;28;20032;-77
2022/08/28 12:48:53;;;;;;;9.57;2.67;;;28.80;56.70;;;;;;5071079;28;20524;-74
2022/08/28 12:51:25;;;;;;;7.90;2.53;;;28.80;56.70;;;;;;5071175;28;20068;-73
2022/08/28 12:53:54;;;;;;;5.03;2.17;;;28.90;56.60;;;;;;5070316;28;20148;-74
2022/08/28 12:56:22;;;;;;;5.53;2.45;;;28.90;56.60;;;;;;5070847;28;20127;-74
2022/08/28 12:58:49;;;;;;;5.07;2.33;;;29.00;57.20;;;;;;5071208;28;20051;-73
2022/08/28 13:01:26;;;;;;;6.05;3.00;;;29.00;57.20;;;;;;5070734;28;20040;-74
2022/08/28 13:04:04;;;;;;;9.40;6.63;;;28.90;56.60;;;;;;5071042;28;20044;-74
2022/08/28 13:06:33;;;;;;;4.20;2.80;;;28.90;56.60;;;;;;5070740;28;20378;-74
2022/08/28 13:09:01;;;;;;;5.88;2.97;;;28.90;56.60;;;;;;5060545;28;20392;-73
2022/08/28 13:11:32;;;;;;;3.70;2.35;;;28.80;56.60;;;;;;5093605;28;20125;-75
2022/08/28 13:13:58;;;;;;;5.47;2.38;;;28.90;56.60;;;;;;5075842;28;20028;-74
2022/08/28 13:16:45;;;;;;;3.42;2.03;;;28.80;56.60;;;;;;5092965;28;20493;-73
2022/08/28 13:19:19;;;;;;;7.68;2.50;;;29.00;57.20;;;;;;5075017;28;20103;-74